Startpagina
METAR-TAF:

METAR-TAF

Vliegvelden :

Pago Pago, Kleine afgelegen eilanden van de Verenigde Staten

breedte: 14-20S, lengte: 170-43W, hoogte: 3 m

Actueel weer

Dit bericht is 18 minuten geleden gemaakt, om 06:52 UTC
Wind 5 kt uit variabele richting
Temperatuur 29°C
Vochtigheid 89%
Druk 1010 hPa
Zicht: 16.1 km
Weinig wolken op 1800 ft
Weinig wolken op 10000 ft
Verspreide wolken op 21000 ft

METAR: NSTU 270652Z VRB05KT 10SM FEW018 FEW100 SCT210 29/27 A2982 RMK SLP098 T02860266

Tijdstip: 20:10 (07:10 UTC)

Verwachting

Dit bericht is 1 uur en het 37 minuten geleden gemaakt, om 05:33 UTC
Verwachting geldig van 27 om 06 UTC tot 28 om 06 UTC
Wind 6 kt uit variabele richting
Zicht: 10 km
Verspreide wolken op 2000 ft
Verspreide wolken op 4000 ft
Gebroken wolken op 20000 ft
buien in de omgeving

TAF: NSTU 270533Z 2706/2806 VRB06KT P6SM VCSH SCT020 SCT040 BKN200

Waarnemingen en weersverwachtingen van meer dan 4000 vliegvelden (METAR en TAF).

De beschikbare stations zijn de gele en rode punten op de kaart.

Ga met uw muis naar het station om de naam te zien.

Klik dan om waarnemingen en weersverwachtingen te zien.

kaart wijzigen: klik op de groene knoppen met een zwart kruis om in te zoomen, op de groene knop met een streepje om uit te zoomen of op de groene pijlen voor aangrenzende kaarten.


METAR-TAF: